Time;durP1;ratioP1;P1;durP2;ratioP2;P2;SDS_P1;SDS_P2;PMS_P1;PMS_P2;Temp;Humidity;BMP_temperature;BMP_pressure;BME280_temperature;BME280_humidity;BME280_pressure;Samples;Min_cycle;Max_cycle;Signal;HPM_P1;HPM_P2
2022/01/02 00:01:08;;;;;;;1.60;1.50;;;2.30;99.90;;;;;;5092071;28;20091;-91
2022/01/02 00:03:38;;;;;;;1.70;1.60;;;2.30;99.90;;;;;;5074538;28;20024;-90
2022/01/02 00:06:04;;;;;;;1.13;1.08;;;2.30;99.90;;;;;;5075863;28;20028;-94
2022/01/02 00:08:36;;;;;;;1.00;1.00;;;2.20;99.90;;;;;;5074130;28;20535;-89
2022/01/02 00:11:03;;;;;;;0.95;0.93;;;2.10;99.90;;;;;;5074321;28;20033;-89
2022/01/02 00:13:34;;;;;;;1.30;1.20;;;2.10;99.90;;;;;;5074855;28;20032;-90
2022/01/02 00:16:05;;;;;;;1.33;1.23;;;2.00;99.90;;;;;;5074738;28;20568;-93
2022/01/02 00:18:40;;;;;;;1.65;1.55;;;2.00;99.90;;;;;;5074177;28;20033;-88
2022/01/02 00:21:10;;;;;;;2.08;1.70;;;2.00;99.90;;;;;;5074949;28;20021;-89
2022/01/02 00:23:58;;;;;;;1.50;1.40;;;2.00;99.90;;;;;;5074662;28;20028;-90
2022/01/02 00:26:35;;;;;;;1.65;1.52;;;1.90;99.90;;;;;;5075090;28;20055;-91
2022/01/02 00:29:04;;;;;;;1.70;1.60;;;1.80;99.90;;;;;;5074130;28;20091;-92
2022/01/02 00:31:31;;;;;;;1.52;1.42;;;1.80;99.90;;;;;;5073742;28;20060;-92
2022/01/02 00:33:57;;;;;;;1.77;1.60;;;1.70;99.90;;;;;;5057329;28;20410;-90
2022/01/02 00:36:23;;;;;;;2.13;1.88;;;1.70;99.90;;;;;;5074031;28;20021;-92
2022/01/02 00:38:50;;;;;;;1.58;1.48;;;1.70;99.90;;;;;;5074677;28;20024;-91
2022/01/02 00:41:22;;;;;;;1.85;1.70;;;1.70;99.90;;;;;;5074092;28;20050;-90
2022/01/02 00:43:58;;;;;;;1.80;1.58;;;1.70;99.90;;;;;;5073637;28;20063;-92
2022/01/02 00:46:27;;;;;;;1.73;1.63;;;1.70;99.90;;;;;;5073704;28;20025;-91
2022/01/02 00:48:59;;;;;;;2.05;1.55;;;1.70;99.90;;;;;;5086581;28;20095;-95
2022/01/02 00:51:47;;;;;;;2.53;1.65;;;1.70;99.90;;;;;;5110927;28;20024;-90
2022/01/02 00:54:18;;;;;;;2.30;1.73;;;1.60;99.90;;;;;;5111033;28;20028;-94
2022/01/02 00:56:46;;;;;;;1.48;1.38;;;1.60;99.90;;;;;;5111128;28;20074;-91
2022/01/02 00:59:23;;;;;;;1.17;1.08;;;1.60;99.90;;;;;;5111078;28;20035;-90
2022/01/02 01:02:03;;;;;;;1.00;0.88;;;1.60;99.90;;;;;;5111084;28;20382;-90
2022/01/02 01:04:33;;;;;;;0.90;0.90;;;1.50;99.90;;;;;;5110845;28;20501;-92
2022/01/02 01:07:04;;;;;;;1.60;0.93;;;1.50;99.90;;;;;;5110516;28;20538;-93
2022/01/02 01:09:31;;;;;;;1.17;1.08;;;1.40;99.90;;;;;;5110625;28;20166;-92
2022/01/02 01:11:59;;;;;;;0.93;0.80;;;1.40;99.90;;;;;;5110634;28;20028;-92
2022/01/02 01:14:26;;;;;;;1.10;0.98;;;1.40;99.90;;;;;;5110767;28;20486;-92
2022/01/02 01:16:52;;;;;;;2.60;0.98;;;1.40;99.90;;;;;;5110855;28;20509;-94
2022/01/02 01:19:19;;;;;;;1.52;1.42;;;1.40;99.90;;;;;;5095014;28;20027;-92
2022/01/02 01:21:45;;;;;;;1.67;1.20;;;1.30;99.90;;;;;;5110778;28;20038;-92
2022/01/02 01:24:11;;;;;;;1.20;1.10;;;1.30;99.90;;;;;;5111310;28;20028;-91
2022/01/02 01:26:38;;;;;;;0.82;0.82;;;1.40;99.90;;;;;;5111006;28;20070;-94
2022/01/02 01:29:03;;;;;;;1.90;1.08;;;1.30;99.90;;;;;;5093585;28;20498;-93
2022/01/02 01:31:31;;;;;;;0.93;0.80;;;1.30;99.90;;;;;;5094080;28;20068;-94
2022/01/02 01:33:56;;;;;;;2.25;0.90;;;1.30;99.90;;;;;;5109608;28;20131;-93
2022/01/02 01:36:22;;;;;;;1.23;1.00;;;1.20;99.90;;;;;;5094048;28;20624;-94
2022/01/02 01:38:49;;;;;;;1.02;0.90;;;1.20;99.90;;;;;;5110127;28;20066;-93
2022/01/02 01:41:28;;;;;;;1.13;0.90;;;1.20;99.90;;;;;;5110516;28;20464;-93
2022/01/02 01:46:42;;;;;;;0.75;0.75;;;1.20;99.90;;;;;;5094335;28;20029;-96
2022/01/02 01:49:20;;;;;;;1.23;1.00;;;1.20;99.90;;;;;;5093729;28;20115;-93
2022/01/02 01:51:47;;;;;;;1.40;0.90;;;1.10;99.90;;;;;;5088382;28;20024;-93
2022/01/02 01:54:13;;;;;;;0.60;0.60;;;1.10;99.90;;;;;;5093164;28;20021;-92
2022/01/02 01:56:39;;;;;;;0.45;0.45;;;1.10;99.90;;;;;;5092822;28;20020;-94
2022/01/02 01:59:06;;;;;;;0.40;0.40;;;1.10;99.90;;;;;;5093361;28;20024;-94
2022/01/02 02:01:33;;;;;;;0.77;0.77;;;1.10;99.90;;;;;;5094043;28;20066;-94
2022/01/02 02:03:59;;;;;;;0.45;0.45;;;1.00;99.90;;;;;;5076816;28;20074;-92
2022/01/02 02:06:26;;;;;;;0.47;0.47;;;1.00;99.90;;;;;;5076654;28;20028;-90
2022/01/02 02:08:57;;;;;;;0.60;0.60;;;1.00;99.90;;;;;;5093137;28;20123;-94
2022/01/02 02:11:24;;;;;;;1.23;1.10;;;1.00;99.90;;;;;;5093505;28;20028;-94
2022/01/02 02:13:51;;;;;;;0.93;0.80;;;1.00;99.90;;;;;;5094044;28;20502;-92
2022/01/02 02:16:17;;;;;;;0.93;0.90;;;1.00;99.90;;;;;;5093139;28;20032;-92
2022/01/02 02:18:42;;;;;;;1.35;0.68;;;1.00;99.90;;;;;;5092906;28;20374;-92
2022/01/02 02:21:09;;;;;;;0.70;0.70;;;0.90;99.90;;;;;;5093520;28;20052;-92
2022/01/02 02:23:35;;;;;;;0.68;0.68;;;1.00;99.90;;;;;;5077321;28;20036;-94
2022/01/02 02:26:01;;;;;;;1.35;0.93;;;1.00;99.90;;;;;;5092857;28;20153;-91
2022/01/02 02:28:28;;;;;;;0.73;0.73;;;1.00;99.90;;;;;;5093097;28;20028;-93
2022/01/02 02:30:54;;;;;;;0.70;0.70;;;1.00;99.90;;;;;;5073199;28;20566;-89
2022/01/02 02:33:20;;;;;;;0.80;0.80;;;1.00;99.90;;;;;;5089019;28;20063;-90
2022/01/02 02:35:48;;;;;;;0.80;0.80;;;1.00;99.90;;;;;;5073956;28;20463;-91
2022/01/02 02:38:16;;;;;;;2.05;1.13;;;1.00;99.90;;;;;;5089447;28;20055;-93
2022/01/02 02:40:43;;;;;;;1.08;0.80;;;0.90;99.90;;;;;;5090969;28;20020;-89
2022/01/02 02:51:31;;;;;;;1.48;1.10;;;0.90;99.90;;;;;;5077720;28;20079;-91
2022/01/02 02:53:56;;;;;;;0.80;0.80;;;0.90;99.90;;;;;;5093074;28;20466;-90
2022/01/02 02:56:39;;;;;;;1.05;1.00;;;0.90;99.90;;;;;;5077411;28;20048;-96
2022/01/02 02:59:07;;;;;;;1.20;1.00;;;0.90;99.90;;;;;;5076481;28;20382;-94
2022/01/02 03:01:32;;;;;;;2.83;1.10;;;0.90;99.90;;;;;;5076495;28;20021;-96
2022/01/02 03:03:58;;;;;;;2.25;1.23;;;0.80;99.90;;;;;;5076498;28;20540;-95
2022/01/02 03:06:24;;;;;;;1.33;1.00;;;0.90;99.90;;;;;;5076043;28;20433;-96
2022/01/02 03:08:52;;;;;;;0.82;0.82;;;0.80;99.90;;;;;;5076490;28;20032;-90
2022/01/02 03:11:20;;;;;;;1.90;0.90;;;0.80;99.90;;;;;;5093580;28;20025;-95
2022/01/02 03:13:51;;;;;;;1.67;1.20;;;0.80;99.90;;;;;;5077443;28;20020;-92
2022/01/02 03:16:17;;;;;;;3.55;1.63;;;0.70;99.90;;;;;;5092648;28;20021;-93
2022/01/02 03:18:43;;;;;;;1.25;1.13;;;0.70;99.90;;;;;;5076503;28;20029;-94
2022/01/02 03:21:09;;;;;;;2.15;1.70;;;0.70;99.90;;;;;;5092571;28;20016;-93
2022/01/02 03:23:37;;;;;;;1.30;1.20;;;0.70;99.90;;;;;;5077541;28;20024;-96
2022/01/02 03:26:05;;;;;;;2.28;1.30;;;0.70;99.90;;;;;;5075445;28;20078;-93
2022/01/02 03:28:32;;;;;;;2.13;1.35;;;0.70;99.90;;;;;;5077521;28;20029;-94
2022/01/02 03:30:58;;;;;;;1.20;1.10;;;0.70;99.90;;;;;;5092166;28;20029;-95
2022/01/02 03:33:24;;;;;;;1.80;1.27;;;0.70;99.90;;;;;;5075944;28;20516;-94
2022/01/02 03:35:49;;;;;;;2.47;1.50;;;0.70;99.90;;;;;;5075378;28;20033;-93
2022/01/02 03:38:16;;;;;;;2.58;1.70;;;0.70;99.90;;;;;;5091952;28;20052;-93
2022/01/02 03:40:42;;;;;;;2.42;1.23;;;0.70;99.90;;;;;;5075256;28;20036;-93
2022/01/02 03:43:08;;;;;;;1.98;1.50;;;0.70;99.90;;;;;;5091878;28;20025;-91
2022/01/02 03:45:33;;;;;;;1.50;1.40;;;0.70;99.90;;;;;;5091798;28;20433;-93
2022/01/02 03:48:01;;;;;;;1.13;1.10;;;0.70;99.90;;;;;;5095121;28;20493;-93
2022/01/02 03:50:27;;;;;;;0.88;0.85;;;0.80;99.90;;;;;;5096884;28;20026;-94
2022/01/02 03:52:53;;;;;;;0.93;0.90;;;0.70;99.90;;;;;;5096356;28;20032;-91
2022/01/02 03:55:21;;;;;;;1.60;1.30;;;0.80;99.90;;;;;;5094495;28;20043;-92
2022/01/02 03:57:46;;;;;;;1.25;1.10;;;0.70;99.90;;;;;;5095142;28;20028;-90
2022/01/02 04:00:14;;;;;;;1.10;1.08;;;0.80;99.90;;;;;;5078363;28;20405;-92
2022/01/02 04:02:41;;;;;;;1.30;1.20;;;0.80;99.90;;;;;;5095511;28;20497;-91
2022/01/02 04:05:08;;;;;;;1.42;1.20;;;0.80;99.90;;;;;;5094836;28;20035;-92
2022/01/02 04:07:35;;;;;;;1.50;1.40;;;0.80;99.90;;;;;;5094855;28;20059;-92
2022/01/02 04:10:05;;;;;;;1.67;1.52;;;0.80;99.90;;;;;;5094768;28;20027;-91
2022/01/02 04:12:32;;;;;;;1.33;1.23;;;0.80;99.90;;;;;;5094909;28;20517;-92
2022/01/02 04:14:57;;;;;;;3.80;1.58;;;0.80;99.90;;;;;;5094490;28;20032;-92
2022/01/02 04:17:23;;;;;;;1.65;1.42;;;0.70;99.90;;;;;;5094429;28;20027;-91
2022/01/02 04:19:50;;;;;;;1.02;1.02;;;0.80;99.90;;;;;;5094397;28;20024;-92
2022/01/02 04:22:17;;;;;;;1.23;1.23;;;0.80;99.90;;;;;;5094547;28;20028;-91
2022/01/02 04:24:43;;;;;;;1.40;1.30;;;0.80;99.90;;;;;;5094103;28;20533;-93
2022/01/02 04:27:11;;;;;;;1.40;1.30;;;0.70;99.90;;;;;;5095846;28;20028;-91
2022/01/02 04:29:36;;;;;;;1.50;1.40;;;0.70;99.90;;;;;;5094191;28;20020;-90
2022/01/02 04:32:02;;;;;;;1.23;1.13;;;0.70;99.90;;;;;;5094231;28;20111;-91
2022/01/02 04:34:28;;;;;;;1.58;1.48;;;0.70;99.90;;;;;;5094623;28;20572;-91
2022/01/02 04:36:54;;;;;;;1.52;1.42;;;0.60;99.90;;;;;;5095170;28;20028;-91
2022/01/02 04:39:20;;;;;;;2.22;1.48;;;0.70;99.90;;;;;;5094063;28;20028;-89
2022/01/02 04:41:45;;;;;;;1.85;1.75;;;0.60;99.90;;;;;;5077576;28;20115;-90
2022/01/02 04:44:11;;;;;;;1.58;1.48;;;0.60;99.90;;;;;;5093584;28;20071;-93
2022/01/02 04:46:37;;;;;;;1.35;1.25;;;0.60;99.90;;;;;;5077384;28;20028;-93
2022/01/02 04:49:02;;;;;;;1.88;1.77;;;0.60;99.90;;;;;;5077316;28;20035;-93
2022/01/02 04:51:28;;;;;;;1.95;1.75;;;0.60;99.90;;;;;;5093809;28;20385;-93
2022/01/02 04:53:54;;;;;;;1.40;1.30;;;0.60;99.90;;;;;;5077311;28;20052;-95
2022/01/02 04:56:19;;;;;;;1.45;1.35;;;0.60;99.90;;;;;;5094421;28;20024;-92
2022/01/02 04:58:47;;;;;;;1.55;1.45;;;0.60;99.90;;;;;;5094426;28;20027;-94
2022/01/02 05:01:14;;;;;;;3.38;1.45;;;0.60;99.90;;;;;;5094042;28;20028;-95
2022/01/02 05:03:41;;;;;;;1.70;1.60;;;0.50;99.90;;;;;;5093994;28;20020;-94
2022/01/02 05:06:10;;;;;;;1.60;1.50;;;0.50;99.90;;;;;;5094046;28;20047;-94
2022/01/02 05:08:37;;;;;;;1.25;1.25;;;0.50;99.90;;;;;;5110696;28;20032;-92
2022/01/02 05:11:03;;;;;;;1.63;1.52;;;0.50;99.90;;;;;;5110560;28;20034;-92
2022/01/02 05:13:29;;;;;;;1.58;1.48;;;0.40;99.90;;;;;;5110841;28;20393;-92
2022/01/02 05:15:55;;;;;;;1.60;1.50;;;0.40;99.90;;;;;;5110590;28;20016;-91
2022/01/02 05:18:21;;;;;;;1.50;1.40;;;0.40;99.90;;;;;;5093340;28;20020;-94
2022/01/02 05:20:47;;;;;;;1.88;1.65;;;0.40;99.90;;;;;;5110701;28;20020;-92
2022/01/02 05:23:14;;;;;;;4.03;2.50;;;0.30;99.90;;;;;;5110639;28;20431;-96
2022/01/02 05:25:39;;;;;;;2.72;2.40;;;0.40;99.90;;;;;;5093262;28;20032;-91
2022/01/02 05:28:06;;;;;;;2.25;1.60;;;0.30;99.90;;;;;;5110469;28;20038;-94
2022/01/02 05:30:32;;;;;;;1.95;1.70;;;0.30;99.90;;;;;;5093299;28;20036;-94
2022/01/02 05:32:58;;;;;;;3.17;2.05;;;0.30;99.90;;;;;;5092810;28;20051;-93
2022/01/02 05:35:23;;;;;;;2.00;1.48;;;0.30;99.90;;;;;;5093517;28;20035;-95
2022/01/02 05:37:49;;;;;;;2.08;1.88;;;0.20;99.90;;;;;;5110709;28;20359;-94
2022/01/02 05:40:15;;;;;;;1.73;1.60;;;0.30;99.90;;;;;;5093969;28;20024;-93
2022/01/02 05:42:42;;;;;;;1.80;1.70;;;0.20;99.90;;;;;;5110123;28;20032;-92
2022/01/02 05:45:09;;;;;;;1.90;1.60;;;0.20;99.90;;;;;;5094333;28;20030;-92
2022/01/02 05:47:37;;;;;;;1.67;1.58;;;0.30;99.90;;;;;;5076196;28;20127;-92
2022/01/02 05:50:04;;;;;;;1.35;1.25;;;0.20;99.90;;;;;;5094240;28;20028;-94
2022/01/02 05:52:31;;;;;;;2.00;1.90;;;0.20;99.90;;;;;;5092632;28;20052;-94
2022/01/02 05:54:57;;;;;;;1.52;1.42;;;0.20;99.90;;;;;;5094741;28;20032;-94
2022/01/02 05:57:23;;;;;;;1.42;1.33;;;0.20;99.90;;;;;;5092836;28;20027;-94
2022/01/02 05:59:49;;;;;;;1.60;1.40;;;0.20;99.90;;;;;;5092932;28;20496;-94
2022/01/02 06:02:15;;;;;;;1.60;1.50;;;0.20;99.90;;;;;;5076210;28;20074;-92
2022/01/02 06:04:40;;;;;;;1.65;1.55;;;0.10;99.90;;;;;;5077900;28;20557;-95
2022/01/02 06:07:06;;;;;;;1.83;1.70;;;0.10;99.90;;;;;;5093139;28;20382;-95
2022/01/02 06:09:32;;;;;;;1.55;1.45;;;0.10;99.90;;;;;;5076146;28;20032;-93
2022/01/02 06:11:59;;;;;;;1.80;1.70;;;0.10;99.90;;;;;;5093349;28;20024;-94
2022/01/02 06:14:25;;;;;;;1.80;1.70;;;0.10;99.90;;;;;;5092964;28;20020;-91
2022/01/02 06:16:52;;;;;;;2.97;2.00;;;0.10;99.90;;;;;;5097118;28;20020;-94
2022/01/02 06:19:18;;;;;;;1.50;1.40;;;0.00;99.90;;;;;;5080494;28;20024;-94
2022/01/02 06:21:43;;;;;;;1.42;1.33;;;0.00;99.90;;;;;;5097708;28;20020;-94
2022/01/02 06:24:09;;;;;;;1.60;1.50;;;0.00;99.90;;;;;;5080026;28;20032;-96
2022/01/02 06:26:35;;;;;;;2.03;1.60;;;-0.10;99.90;;;;;;5096860;28;20028;-94
2022/01/02 06:29:03;;;;;;;2.30;1.55;;;-0.10;99.90;;;;;;5079866;28;20046;-92
2022/01/02 06:31:30;;;;;;;2.17;1.83;;;-0.20;99.90;;;;;;5080296;28;20032;-94
2022/01/02 06:33:56;;;;;;;1.77;1.40;;;-0.20;99.90;;;;;;5096690;28;20044;-94
2022/01/02 06:36:21;;;;;;;2.10;1.60;;;-0.30;99.90;;;;;;5079599;28;20119;-96
2022/01/02 06:38:47;;;;;;;2.47;1.90;;;-0.40;99.90;;;;;;5096251;28;20474;-95
2022/01/02 06:41:14;;;;;;;2.60;1.75;;;-0.40;99.90;;;;;;5096454;28;20023;-96
2022/01/02 06:43:40;;;;;;;3.13;2.30;;;-0.50;99.90;;;;;;5079401;28;20035;-92
2022/01/02 06:46:07;;;;;;;1.95;1.73;;;-0.50;99.90;;;;;;5095496;28;20113;-94
2022/01/02 06:48:46;;;;;;;3.38;2.22;;;-0.50;99.90;;;;;;5114712;28;20004;-96
2022/01/02 06:51:12;;;;;;;2.33;1.75;;;-0.50;99.90;;;;;;5099980;28;20066;-95
2022/01/02 06:53:38;;;;;;;5.47;2.30;;;-0.50;99.90;;;;;;5107076;28;20142;-95
2022/01/02 06:56:04;;;;;;;1.67;1.55;;;-0.50;99.90;;;;;;5097338;28;20043;-95
2022/01/02 06:58:30;;;;;;;3.25;2.72;;;-0.50;99.90;;;;;;5096102;28;20020;-95
2022/01/02 14:23:08;;;;;;;48.55;14.57;;;-2.60;99.90;;;;;;5092400;27;20378;-96
2022/01/02 14:25:33;;;;;;;31.33;11.45;;;-2.60;99.90;;;;;;5090778;28;20032;-96
2022/01/02 14:27:59;;;;;;;17.90;7.07;;;-2.60;99.90;;;;;;5090691;28;20424;-96
2022/01/02 14:30:25;;;;;;;10.00;5.32;;;-2.50;99.90;;;;;;5091592;28;20020;-96
2022/01/02 14:32:52;;;;;;;10.05;6.13;;;-2.40;99.90;;;;;;5090849;28;20038;-96
2022/01/02 14:35:19;;;;;;;16.15;7.43;;;-2.40;99.90;;;;;;5090784;28;20107;-96
2022/01/02 14:41:06;;;;;;;10.68;6.32;;;-2.20;99.90;;;;;;5091561;28;20535;-96
2022/01/02 14:43:32;;;;;;;10.52;6.05;;;-2.10;99.90;;;;;;5090728;28;20024;-94
2022/01/02 14:45:58;;;;;;;8.75;5.25;;;-2.10;99.90;;;;;;5090295;28;20036;-96
2022/01/02 14:48:25;;;;;;;12.20;6.10;;;-2.00;99.90;;;;;;5091291;28;20344;-94
2022/01/02 14:50:51;;;;;;;14.98;7.50;;;-1.90;99.90;;;;;;5090375;28;20387;-96
2022/01/02 14:53:17;;;;;;;18.75;7.85;;;-1.90;99.90;;;;;;5091184;28;20044;-96
2022/01/02 14:55:43;;;;;;;17.05;8.90;;;-1.70;99.90;;;;;;5090350;28;20024;-96
2022/01/02 14:58:09;;;;;;;24.65;11.13;;;-1.60;99.90;;;;;;5090565;28;20024;-95
2022/01/02 15:00:35;;;;;;;26.88;13.00;;;-1.60;99.90;;;;;;5090098;28;20020;-96
2022/01/02 15:03:01;;;;;;;24.63;11.48;;;-1.40;99.90;;;;;;5090073;28;20177;-96
2022/01/02 15:05:27;;;;;;;24.55;10.98;;;-1.40;99.90;;;;;;5089904;28;20016;-96
2022/01/02 15:07:53;;;;;;;44.53;19.83;;;-1.30;99.90;;;;;;5090089;28;20020;-96
2022/01/02 15:10:19;;;;;;;45.75;20.05;;;-1.20;99.90;;;;;;5089706;28;20020;-96
2022/01/02 15:12:45;;;;;;;37.03;17.95;;;-1.10;99.90;;;;;;5089879;28;20077;-96
2022/01/02 15:15:12;;;;;;;46.30;21.48;;;-1.00;99.90;;;;;;5089931;28;20047;-96
2022/01/02 15:17:39;;;;;;;79.72;39.55;;;-1.00;99.90;;;;;;5089963;28;20478;-95
2022/01/02 15:20:05;;;;;;;73.75;35.25;;;-0.90;99.90;;;;;;5089667;28;20489;-95
2022/01/02 15:22:32;;;;;;;73.13;36.33;;;-0.90;99.90;;;;;;5089408;28;20040;-96
2022/01/02 15:24:58;;;;;;;58.75;31.67;;;-0.80;99.90;;;;;;5089620;28;20024;-96
2022/01/02 15:27:24;;;;;;;63.08;30.60;;;-0.80;99.90;;;;;;5089659;28;20413;-96
2022/01/02 15:29:50;;;;;;;61.33;31.05;;;-0.80;99.90;;;;;;5089593;28;20051;-96
2022/01/02 15:32:16;;;;;;;60.45;30.60;;;-0.70;99.90;;;;;;5088970;28;20020;-96
2022/01/02 15:34:42;;;;;;;46.15;26.08;;;-0.70;99.90;;;;;;5075588;28;20035;-96
2022/01/02 15:37:08;;;;;;;45.78;24.75;;;-0.70;99.90;;;;;;5076030;28;20044;-96
2022/01/02 15:39:34;;;;;;;43.05;21.65;;;-0.60;99.90;;;;;;5075818;28;20024;-96
2022/01/02 15:42:00;;;;;;;49.03;23.20;;;-0.60;99.90;;;;;;5076073;28;20025;-95
2022/01/02 15:44:26;;;;;;;52.03;22.45;;;-0.60;99.90;;;;;;5075831;28;20021;-96
2022/01/02 15:46:53;;;;;;;68.82;32.53;;;-0.50;99.90;;;;;;5076017;28;20088;-96
2022/01/02 15:49:19;;;;;;;81.20;38.08;;;-0.50;99.90;;;;;;5075943;28;20047;-96
2022/01/02 15:51:45;;;;;;;84.20;39.00;;;-0.50;99.90;;;;;;5075974;28;20032;-96
2022/01/02 15:54:12;;;;;;;90.50;37.95;;;-0.60;99.90;;;;;;5075892;28;20034;-96
2022/01/02 15:56:38;;;;;;;99.35;38.47;;;-0.60;99.90;;;;;;5076188;28;20032;-96
2022/01/02 15:59:04;;;;;;;85.45;39.97;;;-0.60;99.90;;;;;;5075606;28;20024;-96
2022/01/02 16:01:31;;;;;;;79.82;37.33;;;-0.60;99.90;;;;;;5076514;28;20025;-96
2022/01/02 16:03:57;;;;;;;65.60;29.85;;;-0.60;99.90;;;;;;5076155;28;20023;-96
2022/01/02 16:06:24;;;;;;;67.68;28.90;;;-0.60;99.90;;;;;;5074755;28;20032;-96
2022/01/02 16:08:50;;;;;;;71.30;30.75;;;-0.70;99.90;;;;;;5075704;28;20023;-96
2022/01/02 16:11:17;;;;;;;67.45;26.23;;;-0.70;99.90;;;;;;5075328;28;20028;-96
2022/01/02 16:13:48;;;;;;;65.07;27.50;;;-0.70;99.90;;;;;;5075337;28;20115;-96
2022/01/02 16:16:14;;;;;;;;;;;-0.70;99.90;;;;;;5075692;28;20074;-96
2022/01/02 16:18:40;;;;;;;71.57;27.27;;;-0.70;99.90;;;;;;5075479;28;19911;-96
2022/01/02 16:21:06;;;;;;;83.93;31.33;;;-0.60;99.90;;;;;;5075335;28;20048;-96
2022/01/02 16:23:35;;;;;;;102.25;33.33;;;-0.70;99.90;;;;;;5075286;28;20020;-96
2022/01/02 16:26:01;;;;;;;103.45;33.35;;;-0.60;99.90;;;;;;5075139;28;20021;-96
2022/01/02 16:28:27;;;;;;;119.10;35.92;;;-0.60;99.90;;;;;;5075831;28;20111;-96
2022/01/02 16:30:53;;;;;;;106.00;33.63;;;-0.70;99.90;;;;;;5075860;28;20118;-96
2022/01/02 16:33:20;;;;;;;122.03;35.55;;;-0.70;99.90;;;;;;5074914;28;20174;-96
2022/01/02 16:35:49;;;;;;;109.63;34.00;;;-0.70;99.90;;;;;;5074785;28;20024;-96
2022/01/02 16:38:15;;;;;;;84.32;26.40;;;-0.70;99.90;;;;;;5075112;28;20024;-95
2022/01/02 16:40:44;;;;;;;98.40;29.33;;;-0.80;99.90;;;;;;5074767;28;20363;-96
2022/01/02 16:43:10;;;;;;;87.45;28.05;;;-0.80;99.90;;;;;;5074653;28;20021;-96
2022/01/02 16:45:36;;;;;;;74.70;25.63;;;-0.80;99.90;;;;;;5073829;28;20029;-96
2022/01/02 16:48:02;;;;;;;50.75;20.58;;;-0.90;99.90;;;;;;5074466;28;20111;-96
2022/01/02 16:50:28;;;;;;;34.78;15.82;;;-0.90;99.90;;;;;;5075088;28;20059;-96
2022/01/02 16:52:54;;;;;;;34.50;13.75;;;-0.90;99.90;;;;;;5074376;28;20032;-95
2022/01/02 16:55:20;;;;;;;26.10;13.25;;;-0.90;99.90;;;;;;5075110;28;20028;-96
2022/01/02 16:57:46;;;;;;;29.25;13.68;;;-0.90;99.90;;;;;;5074950;28;20047;-96
2022/01/02 17:00:15;;;;;;;31.38;14.80;;;-0.90;99.90;;;;;;5074754;28;20032;-96
2022/01/02 17:02:46;;;;;;;31.27;15.48;;;-0.90;99.90;;;;;;5075479;28;20031;-96
2022/01/02 17:05:13;;;;;;;36.58;16.23;;;-0.90;99.90;;;;;;5074468;28;20024;-95
2022/01/02 17:07:39;;;;;;;30.55;16.40;;;-0.90;99.90;;;;;;5074174;28;20029;-96
2022/01/02 17:10:05;;;;;;;36.40;17.00;;;-1.00;99.90;;;;;;5074157;28;20025;-96
2022/01/02 17:12:31;;;;;;;36.63;16.35;;;-1.00;99.90;;;;;;5073977;28;20030;-96
2022/01/02 17:14:57;;;;;;;42.83;18.40;;;-0.90;99.90;;;;;;5074205;28;20029;-96
2022/01/02 17:17:22;;;;;;;47.10;20.40;;;-0.90;99.90;;;;;;5073940;28;20024;-96
2022/01/02 17:19:49;;;;;;;54.65;21.42;;;-0.90;99.90;;;;;;5073976;28;20032;-96
2022/01/02 17:22:15;;;;;;;64.00;26.75;;;-0.80;99.90;;;;;;5075921;28;20087;-95
2022/01/02 17:24:41;;;;;;;83.57;35.13;;;-0.80;99.90;;;;;;5074036;28;20044;-96
2022/01/02 17:27:06;;;;;;;93.13;36.60;;;-0.80;99.90;;;;;;5074099;28;20130;-95
2022/01/02 17:29:32;;;;;;;79.40;32.42;;;-0.70;99.90;;;;;;5073954;28;20107;-96
2022/01/02 17:32:06;;;;;;;100.85;51.00;;;-0.70;99.90;;;;;;5073734;28;20082;-96
2022/01/02 17:34:34;;;;;;;103.35;51.20;;;-0.80;99.90;;;;;;5073710;28;20514;-95
2022/01/02 17:37:02;;;;;;;108.95;60.45;;;-0.80;99.90;;;;;;5073585;28;20033;-96
2022/01/02 17:39:29;;;;;;;78.18;44.47;;;-0.80;99.90;;;;;;5074616;28;20024;-96
2022/01/02 17:41:58;;;;;;;54.55;32.30;;;-0.70;99.90;;;;;;5074476;28;20047;-96
2022/01/02 17:44:24;;;;;;;45.33;23.50;;;-0.80;99.90;;;;;;5074957;28;20052;-95
2022/01/02 17:46:50;;;;;;;32.67;18.00;;;-0.80;99.90;;;;;;5073842;28;20111;-95
2022/01/02 17:49:17;;;;;;;31.15;17.48;;;-0.90;99.90;;;;;;5074757;28;20056;-96
2022/01/02 17:51:43;;;;;;;36.60;17.60;;;-0.80;99.90;;;;;;5073543;28;20364;-96
2022/01/02 17:54:09;;;;;;;36.63;18.33;;;-0.80;99.90;;;;;;5073298;28;20029;-96
2022/01/02 17:56:35;;;;;;;34.53;19.00;;;-0.80;99.90;;;;;;5073532;28;20044;-96
2022/01/02 17:59:01;;;;;;;42.10;20.23;;;-0.80;99.90;;;;;;5073371;28;20029;-96
2022/01/02 18:01:27;;;;;;;46.72;21.15;;;-0.80;99.90;;;;;;5074229;28;20035;-96
2022/01/02 18:04:22;;;;;;;39.00;21.00;;;-0.80;99.90;;;;;;5074140;28;20023;-96
2022/01/02 18:06:50;;;;;;;44.80;22.50;;;-0.80;99.90;;;;;;5073731;28;20028;-95
2022/01/02 18:09:23;;;;;;;39.35;20.40;;;-0.90;99.90;;;;;;5075093;28;20021;-96
2022/01/02 18:11:58;;;;;;;39.75;20.17;;;-0.80;99.90;;;;;;5075412;28;20490;-94
2022/01/02 18:14:23;;;;;;;30.55;15.63;;;-0.80;99.90;;;;;;5074361;28;20029;-94
2022/01/02 18:16:50;;;;;;;31.02;16.60;;;-0.90;99.90;;;;;;5073913;28;20501;-94
2022/01/02 18:19:16;;;;;;;33.33;16.45;;;-0.90;99.90;;;;;;5073707;28;20028;-94
2022/01/02 18:21:51;;;;;;;28.65;14.63;;;-0.80;99.90;;;;;;5074474;28;20041;-95
